Bungo Princess — 3FXV8 — position and weather

sailwx.info

Track history (hours):
 
Tides and Currents Weather Stations Pressure Air Temp Water Temp Dewpoint Dewpoint Depression Visibility Wind Speed Wind Dir Waves Ship Positions

Bungo Princess

Last reported at 2015-Apr-01 07:32 UTC. Time now 2015-Apr-01 08:01 UTC.
Position N 34°38' E 135°25'.

Length 103 m; draft 5 m.

Type: Cargo ship. MMSI: 355091000.

Date/timePositionNaut miles runAvg speedWind from/ knotsBaromVisibWave heightAir tempDewpointWater temp
2015-Apr-01 07:32N 34°38' E 135°25'0 0.0
2015-Apr-01 06:32N 34°38' E 135°25'0 0.0
2015-Apr-01 05:32N 34°38' E 135°25'0 0.0
2015-Apr-01 04:32N 34°38' E 135°25'0 0.0
2015-Apr-01 03:26N 34°38' E 135°25'0 0.0
2015-Apr-01 02:32N 34°38' E 135°25'0 0.0
2015-Apr-01 00:30N 34°38' E 135°25'0 0.0
2015-Mar-31 23:24N 34°38' E 135°25'0 0.0
2015-Mar-31 22:30N 34°38' E 135°25'1 1.5
2015-Mar-31 21:34N 34°38' E 135°23'1 1.3
2015-Mar-31 20:31N 34°37' E 135°22'0 0.0
2015-Mar-31 19:25N 34°37' E 135°22'0 0.0
2015-Mar-31 18:31N 34°37' E 135°22'0 0.1
2015-Mar-31 17:31N 34°37' E 135°22'0 0.1
2015-Mar-31 16:31N 34°37' E 135°22'0 0.1
2015-Mar-31 15:31N 34°37' E 135°22'0 0.1
2015-Mar-31 14:31N 34°37' E 135°22'0 0.0
2015-Mar-31 13:31N 34°37' E 135°22'1 1.0
2015-Mar-31 12:33N 34°36' E 135°21'1211.9
2015-Mar-31 11:33N 34°35' E 135°06'1210.4
2015-Mar-31 10:21N 34°34' E 134°51'  
2015-Mar-26 00:33N 31°01' E 122°23'1212.2
2015-Mar-25 23:33N 31°03' E 122°09'1413.7
2015-Mar-25 22:33N 31°08' E 121°54'1313.4
2015-Mar-25 21:33N 31°18' E 121°43'1111.5
2015-Mar-25 20:33N 31°24' E 121°31'2 2.2
2015-Mar-25 19:33N 31°22' E 121°30'0 0.0
2015-Mar-25 18:28N 31°22' E 121°30'0 0.0
2015-Mar-25 17:28N 31°22' E 121°30'0 0.0
2015-Mar-25 16:28N 31°22' E 121°30'0 0.0
2015-Mar-25 15:28N 31°22' E 121°30'0 0.0
2015-Mar-25 14:28N 31°22' E 121°30'0 0.0
2015-Mar-25 13:28N 31°22' E 121°30'0 0.0
2015-Mar-25 12:28N 31°22' E 121°30'0 0.0
2015-Mar-25 11:16N 31°22' E 121°30'0 0.0
2015-Mar-25 10:28N 31°22' E 121°30'0 0.0
2015-Mar-25 09:28N 31°22' E 121°30'0 0.0
2015-Mar-25 08:28N 31°22' E 121°30'0 0.0
2015-Mar-25 07:28N 31°22' E 121°30'0 0.0
2015-Mar-25 06:16N 31°22' E 121°30'0 0.0
2015-Mar-25 05:28N 31°22' E 121°30'0 0.0
2015-Mar-25 04:28N 31°22' E 121°30'0 0.0
2015-Mar-25 03:22N 31°22' E 121°30'0 0.0
2015-Mar-25 02:28N 31°22' E 121°30'0 0.0
2015-Mar-25 01:22N 31°22' E 121°30'0 0.0
2015-Mar-25 00:28N 31°22' E 121°30'0 0.0
2015-Mar-24 23:28N 31°22' E 121°30'0 0.0
2015-Mar-24 22:28N 31°22' E 121°30'2 2.6
2015-Mar-24 21:33N 31°24' E 121°32'9 9.0
2015-Mar-24 20:34N 31°20' E 121°41'1110.8
2015-Mar-24 19:33N 31°12' E 121°50'1212.2
2015-Mar-24 18:33N 31°05' E 122°01'1111.2
2015-Mar-24 17:33N 31°03' E 122°14'  
2015-Mar-22 10:24N 22°45' E 120°05'1011.7
2015-Mar-22 09:33N 22°38' E 120°12'5 3.8
2015-Mar-22 08:12N 22°37' E 120°18'  
Track history (hours):
 
Tides and Currents Weather Stations Pressure Air Temp Water Temp Dewpoint Dewpoint Depression Visibility Wind Speed Wind Dir Waves Ship Positions

Bungo Princess

Last reported at 2015-Apr-01 07:32 UTC. Time now 2015-Apr-01 08:01 UTC.
Position N 34°38' E 135°25'.

Length 103 m; draft 5 m.

Type: Cargo ship. MMSI: 355091000.

Date/timePositionNaut miles runAvg speedWind from/ knotsBaromVisibWave heightAir tempDewpointWater temp
2015-Apr-01 07:32N 34°38' E 135°25'0 0.0
2015-Apr-01 06:32N 34°38' E 135°25'0 0.0
2015-Apr-01 05:32N 34°38' E 135°25'0 0.0
2015-Apr-01 04:32N 34°38' E 135°25'0 0.0
2015-Apr-01 03:26N 34°38' E 135°25'0 0.0
2015-Apr-01 02:32N 34°38' E 135°25'0 0.0
2015-Apr-01 00:30N 34°38' E 135°25'0 0.0
2015-Mar-31 23:24N 34°38' E 135°25'0 0.0
2015-Mar-31 22:30N 34°38' E 135°25'1 1.5
2015-Mar-31 21:34N 34°38' E 135°23'1 1.3
2015-Mar-31 20:31N 34°37' E 135°22'0 0.0
2015-Mar-31 19:25N 34°37' E 135°22'0 0.0
2015-Mar-31 18:31N 34°37' E 135°22'0 0.1
2015-Mar-31 17:31N 34°37' E 135°22'0 0.1
2015-Mar-31 16:31N 34°37' E 135°22'0 0.1
2015-Mar-31 15:31N 34°37' E 135°22'0 0.1
2015-Mar-31 14:31N 34°37' E 135°22'0 0.0
2015-Mar-31 13:31N 34°37' E 135°22'1 1.0
2015-Mar-31 12:33N 34°36' E 135°21'1211.9
2015-Mar-31 11:33N 34°35' E 135°06'1210.4
2015-Mar-31 10:21N 34°34' E 134°51'  
2015-Mar-26 00:33N 31°01' E 122°23'1212.2
2015-Mar-25 23:33N 31°03' E 122°09'1413.7
2015-Mar-25 22:33N 31°08' E 121°54'1313.4
2015-Mar-25 21:33N 31°18' E 121°43'1111.5
2015-Mar-25 20:33N 31°24' E 121°31'2 2.2
2015-Mar-25 19:33N 31°22' E 121°30'0 0.0
2015-Mar-25 18:28N 31°22' E 121°30'0 0.0
2015-Mar-25 17:28N 31°22' E 121°30'0 0.0
2015-Mar-25 16:28N 31°22' E 121°30'0 0.0
2015-Mar-25 15:28N 31°22' E 121°30'0 0.0
2015-Mar-25 14:28N 31°22' E 121°30'0 0.0
2015-Mar-25 13:28N 31°22' E 121°30'0 0.0
2015-Mar-25 12:28N 31°22' E 121°30'0 0.0
2015-Mar-25 11:16N 31°22' E 121°30'0 0.0
2015-Mar-25 10:28N 31°22' E 121°30'0 0.0
2015-Mar-25 09:28N 31°22' E 121°30'0 0.0
2015-Mar-25 08:28N 31°22' E 121°30'0 0.0
2015-Mar-25 07:28N 31°22' E 121°30'0 0.0
2015-Mar-25 06:16N 31°22' E 121°30'0 0.0
2015-Mar-25 05:28N 31°22' E 121°30'0 0.0
2015-Mar-25 04:28N 31°22' E 121°30'0 0.0
2015-Mar-25 03:22N 31°22' E 121°30'0 0.0
2015-Mar-25 02:28N 31°22' E 121°30'0 0.0
2015-Mar-25 01:22N 31°22' E 121°30'0 0.0
2015-Mar-25 00:28N 31°22' E 121°30'0 0.0
2015-Mar-24 23:28N 31°22' E 121°30'0 0.0
2015-Mar-24 22:28N 31°22' E 121°30'2 2.6
2015-Mar-24 21:33N 31°24' E 121°32'9 9.0
2015-Mar-24 20:34N 31°20' E 121°41'1110.8
2015-Mar-24 19:33N 31°12' E 121°50'1212.2
2015-Mar-24 18:33N 31°05' E 122°01'1111.2
2015-Mar-24 17:33N 31°03' E 122°14'  
2015-Mar-22 10:24N 22°45' E 120°05'1011.7
2015-Mar-22 09:33N 22°38' E 120°12'5 3.8
2015-Mar-22 08:12N 22°37' E 120°18'  

Dump ship's entire track history